SVBS/MYC METAR and TAF weather

Enter ICAO airport designator
Station Type Date Time Source
SVBS METAR 2024/03/12 16:03 UTC NOAA

SVBS 121603Z AUTO 24006KT NCD 32/16 Q1018


Station Type Date Time Source
SVBS Decoded METAR 2024/03/12 16:03 UTC NOAA

Maracay-B. A. Sucre, Venezuela (SVBS) 10-15N 067-39W 437M
Mar 12, 2024 - 12:03 PM EDT / 2024.03.12 1603 UTC
Wind: from the WSW (240 degrees) at 7 MPH (6 KT):0
Temperature: 89 F (32 C)
Dew Point: 60 F (16 C)
Relative Humidity: 38%
Pressure (altimeter): 30.06 in. Hg (1018 hPa)
ob: SVBS 121603Z AUTO 24006KT NCD 32/16 Q1018
cycle: 16

Station Type Date Time Source
SVBS TAF 2018/01/16 06:46 UTC NOAA